In Rescue
 
Open Full Screen Window  High Contrast Mode
April 24, 2019 2:27 AM EDT
Weather Information
Wind Direction
  ---
Wind Speed
  00 kt (0 mph)
Wind Gust
  00 kt (0 mph)
Altimeter
30.03 in
Visibility
10 SM
Temperature
08° C
46° F
Dewpoint
05° C
41° F
Humidity
82%
1hr Rain Fall
00.00 in.
24hr Rain Fall
00.00 in.
Sky Condition
Clear
VFR

METAR KI19 240627Z AUTO 00000KT 10SM CLR 08/05 A3003 RMK AO2 T00810054

FAA Disclaimer: The data displayed is for advisory purposes only and is not to be used for flight planning or operations.